sensor_id;sensor_type;location;lat;lon;timestamp;pressure;altitude;pressure_sealevel;temperature;humidity
57900;BME280;60605;53.716;19.940;2023-11-19T00:00:03;100999.04;;;1.55;96.39
57900;BME280;60605;53.716;19.940;2023-11-19T00:05:08;100995.94;;;1.53;96.34
57900;BME280;60605;53.716;19.940;2023-11-19T00:10:16;100992.64;;;1.53;96.38
57900;BME280;60605;53.716;19.940;2023-11-19T00:15:24;100977.17;;;1.52;95.99
57900;BME280;60605;53.716;19.940;2023-11-19T00:20:28;100963.68;;;1.51;95.84
57900;BME280;60605;53.716;19.940;2023-11-19T00:25:32;100959.98;;;1.51;95.64
57900;BME280;60605;53.716;19.940;2023-11-19T00:30:35;100944.56;;;1.50;95.47
57900;BME280;60605;53.716;19.940;2023-11-19T00:35:38;100933.56;;;1.48;95.34
57900;BME280;60605;53.716;19.940;2023-11-19T00:40:41;100949.98;;;1.47;95.07
57900;BME280;60605;53.716;19.940;2023-11-19T00:45:45;100959.20;;;1.46;94.88
57900;BME280;60605;53.716;19.940;2023-11-19T00:50:49;100948.20;;;1.44;94.68
57900;BME280;60605;53.716;19.940;2023-11-19T00:55:52;100938.23;;;1.43;94.36
57900;BME280;60605;53.716;19.940;2023-11-19T01:00:55;100935.83;;;1.42;94.37
57900;BME280;60605;53.716;19.940;2023-11-19T01:06:00;100935.73;;;1.40;94.54
57900;BME280;60605;53.716;19.940;2023-11-19T01:11:05;100937.10;;;1.41;94.92
57900;BME280;60605;53.716;19.940;2023-11-19T01:16:08;100931.15;;;1.40;95.05
57900;BME280;60605;53.716;19.940;2023-11-19T01:21:13;100916.04;;;1.37;94.69
57900;BME280;60605;53.716;19.940;2023-11-19T01:26:17;100905.92;;;1.35;95.02
57900;BME280;60605;53.716;19.940;2023-11-19T01:31:20;100897.54;;;1.34;95.37
57900;BME280;60605;53.716;19.940;2023-11-19T01:36:24;100890.19;;;1.30;95.28
57900;BME280;60605;53.716;19.940;2023-11-19T01:41:27;100885.77;;;1.26;95.37
57900;BME280;60605;53.716;19.940;2023-11-19T01:46:32;100881.94;;;1.23;95.11
57900;BME280;60605;53.716;19.940;2023-11-19T01:51:36;100877.95;;;1.21;95.31
57900;BME280;60605;53.716;19.940;2023-11-19T01:56:40;100879.59;;;1.21;95.31
57900;BME280;60605;53.716;19.940;2023-11-19T02:01:43;100876.09;;;1.20;95.52
57900;BME280;60605;53.716;19.940;2023-11-19T02:06:48;100873.66;;;1.19;95.58
57900;BME280;60605;53.716;19.940;2023-11-19T02:11:53;100873.73;;;1.18;95.95
57900;BME280;60605;53.716;19.940;2023-11-19T02:16:57;100865.72;;;1.16;96.28
57900;BME280;60605;53.716;19.940;2023-11-19T02:22:01;100854.77;;;1.14;96.33
57900;BME280;60605;53.716;19.940;2023-11-19T02:27:13;100853.48;;;1.11;96.52
57900;BME280;60605;53.716;19.940;2023-11-19T02:32:19;100842.71;;;1.09;96.87
57900;BME280;60605;53.716;19.940;2023-11-19T02:37:23;100825.39;;;1.07;96.96
57900;BME280;60605;53.716;19.940;2023-11-19T02:42:26;100817.05;;;1.05;97.22
57900;BME280;60605;53.716;19.940;2023-11-19T02:47:31;100818.86;;;1.04;97.47
57900;BME280;60605;53.716;19.940;2023-11-19T02:52:34;100821.54;;;1.04;97.62
57900;BME280;60605;53.716;19.940;2023-11-19T02:57:41;100814.84;;;1.01;97.37
57900;BME280;60605;53.716;19.940;2023-11-19T03:02:51;100800.06;;;0.98;97.43
57900;BME280;60605;53.716;19.940;2023-11-19T03:08:14;100787.98;;;0.93;97.11
57900;BME280;60605;53.716;19.940;2023-11-19T03:13:25;100778.02;;;0.89;96.97
57900;BME280;60605;53.716;19.940;2023-11-19T03:18:30;100766.20;;;0.86;96.76
57900;BME280;60605;53.716;19.940;2023-11-19T03:23:33;100755.98;;;0.83;96.70
57900;BME280;60605;53.716;19.940;2023-11-19T03:28:36;100740.91;;;0.79;96.61
57900;BME280;60605;53.716;19.940;2023-11-19T03:33:40;100717.96;;;0.71;96.41
57900;BME280;60605;53.716;19.940;2023-11-19T03:38:43;100696.14;;;0.58;96.42
57900;BME280;60605;53.716;19.940;2023-11-19T03:43:46;100680.84;;;0.42;96.58
57900;BME280;60605;53.716;19.940;2023-11-19T03:48:50;100670.06;;;0.23;96.85
57900;BME280;60605;53.716;19.940;2023-11-19T03:53:53;100667.89;;;0.03;97.34
57900;BME280;60605;53.716;19.940;2023-11-19T03:58:57;100669.44;;;-0.14;97.60
57900;BME280;60605;53.716;19.940;2023-11-19T04:04:00;100669.33;;;-0.29;97.98
57900;BME280;60605;53.716;19.940;2023-11-19T04:09:03;100658.95;;;-0.43;98.33
57900;BME280;60605;53.716;19.940;2023-11-19T04:14:06;100643.77;;;-0.56;98.49
57900;BME280;60605;53.716;19.940;2023-11-19T04:19:09;100628.71;;;-0.67;99.03
57900;BME280;60605;53.716;19.940;2023-11-19T04:24:13;100628.11;;;-0.76;99.49
57900;BME280;60605;53.716;19.940;2023-11-19T04:29:17;100624.84;;;-0.84;99.84
57900;BME280;60605;53.716;19.940;2023-11-19T04:34:20;100611.86;;;-0.92;100.00
57900;BME280;60605;53.716;19.940;2023-11-19T04:39:23;100598.46;;;-0.97;100.00
57900;BME280;60605;53.716;19.940;2023-11-19T04:44:26;100588.30;;;-1.01;100.00
57900;BME280;60605;53.716;19.940;2023-11-19T04:49:30;100582.95;;;-1.03;100.00
57900;BME280;60605;53.716;19.940;2023-11-19T04:54:33;100571.04;;;-1.03;100.00
57900;BME280;60605;53.716;19.940;2023-11-19T04:59:36;100566.87;;;-1.00;100.00
57900;BME280;60605;53.716;19.940;2023-11-19T05:04:43;100556.08;;;-0.98;100.00
57900;BME280;60605;53.716;19.940;2023-11-19T05:09:50;100549.01;;;-1.00;100.00
57900;BME280;60605;53.716;19.940;2023-11-19T05:14:53;100543.41;;;-1.00;100.00
57900;BME280;60605;53.716;19.940;2023-11-19T05:19:56;100539.75;;;-1.01;100.00
57900;BME280;60605;53.716;19.940;2023-11-19T05:25:00;100535.55;;;-0.98;100.00
57900;BME280;60605;53.716;19.940;2023-11-19T05:30:06;100531.73;;;-0.95;100.00
57900;BME280;60605;53.716;19.940;2023-11-19T05:35:16;100525.30;;;-0.92;100.00
57900;BME280;60605;53.716;19.940;2023-11-19T05:40:19;100515.73;;;-0.86;100.00
57900;BME280;60605;53.716;19.940;2023-11-19T05:45:23;100513.00;;;-0.81;100.00
57900;BME280;60605;53.716;19.940;2023-11-19T05:50:27;100506.06;;;-0.76;100.00
57900;BME280;60605;53.716;19.940;2023-11-19T05:55:33;100497.05;;;-0.67;100.00
57900;BME280;60605;53.716;19.940;2023-11-19T06:00:38;100494.14;;;-0.58;100.00
57900;BME280;60605;53.716;19.940;2023-11-19T06:05:46;100490.61;;;-0.51;100.00
57900;BME280;60605;53.716;19.940;2023-11-19T06:10:49;100483.25;;;-0.44;100.00
57900;BME280;60605;53.716;19.940;2023-11-19T06:15:54;100471.38;;;-0.38;100.00
57900;BME280;60605;53.716;19.940;2023-11-19T06:20:57;100457.98;;;-0.34;100.00
57900;BME280;60605;53.716;19.940;2023-11-19T06:26:00;100445.52;;;-0.31;100.00
57900;BME280;60605;53.716;19.940;2023-11-19T06:31:04;100437.13;;;-0.28;100.00
57900;BME280;60605;53.716;19.940;2023-11-19T06:36:08;100432.34;;;-0.24;100.00
57900;BME280;60605;53.716;19.940;2023-11-19T06:41:12;100429.77;;;-0.19;100.00
57900;BME280;60605;53.716;19.940;2023-11-19T06:46:19;100420.85;;;-0.13;100.00
57900;BME280;60605;53.716;19.940;2023-11-19T06:51:22;100412.98;;;-0.07;100.00
57900;BME280;60605;53.716;19.940;2023-11-19T06:56:27;100410.74;;;-0.01;100.00
57900;BME280;60605;53.716;19.940;2023-11-19T07:01:36;100414.34;;;0.04;100.00
57900;BME280;60605;53.716;19.940;2023-11-19T07:06:39;100397.31;;;0.07;100.00
57900;BME280;60605;53.716;19.940;2023-11-19T07:11:45;100393.64;;;0.10;100.00
57900;BME280;60605;53.716;19.940;2023-11-19T07:16:49;100387.98;;;0.14;100.00
57900;BME280;60605;53.716;19.940;2023-11-19T07:21:54;100382.84;;;0.18;100.00
57900;BME280;60605;53.716;19.940;2023-11-19T07:26:57;100378.41;;;0.22;100.00
57900;BME280;60605;53.716;19.940;2023-11-19T07:32:00;100375.25;;;0.25;100.00
57900;BME280;60605;53.716;19.940;2023-11-19T07:37:05;100376.86;;;0.27;100.00
57900;BME280;60605;53.716;19.940;2023-11-19T07:42:08;100371.02;;;0.28;100.00
57900;BME280;60605;53.716;19.940;2023-11-19T07:47:12;100368.77;;;0.31;100.00
57900;BME280;60605;53.716;19.940;2023-11-19T07:52:16;100362.98;;;0.34;100.00
57900;BME280;60605;53.716;19.940;2023-11-19T07:57:22;100358.94;;;0.37;100.00
57900;BME280;60605;53.716;19.940;2023-11-19T08:02:27;100356.11;;;0.40;100.00
57900;BME280;60605;53.716;19.940;2023-11-19T08:07:31;100345.40;;;0.46;100.00
57900;BME280;60605;53.716;19.940;2023-11-19T08:12:34;100341.63;;;0.50;100.00
57900;BME280;60605;53.716;19.940;2023-11-19T08:17:39;100333.81;;;0.52;100.00
57900;BME280;60605;53.716;19.940;2023-11-19T08:22:42;100327.02;;;0.57;100.00
57900;BME280;60605;53.716;19.940;2023-11-19T08:27:45;100317.65;;;0.61;100.00
57900;BME280;60605;53.716;19.940;2023-11-19T08:32:48;100312.67;;;0.65;100.00
57900;BME280;60605;53.716;19.940;2023-11-19T08:37:52;100306.02;;;0.68;100.00
57900;BME280;60605;53.716;19.940;2023-11-19T08:42:56;100296.11;;;0.71;100.00
57900;BME280;60605;53.716;19.940;2023-11-19T08:47:59;100288.13;;;0.76;100.00
57900;BME280;60605;53.716;19.940;2023-11-19T08:53:03;100284.48;;;0.81;100.00
57900;BME280;60605;53.716;19.940;2023-11-19T08:58:10;100280.91;;;0.88;100.00
57900;BME280;60605;53.716;19.940;2023-11-19T09:03:13;100270.83;;;0.91;100.00
57900;BME280;60605;53.716;19.940;2023-11-19T09:08:19;100258.99;;;0.95;100.00
57900;BME280;60605;53.716;19.940;2023-11-19T09:13:23;100251.86;;;1.00;100.00
57900;BME280;60605;53.716;19.940;2023-11-19T09:18:29;100250.50;;;1.04;100.00
57900;BME280;60605;53.716;19.940;2023-11-19T09:23:33;100242.08;;;1.10;100.00
57900;BME280;60605;53.716;19.940;2023-11-19T09:28:42;100233.50;;;1.12;100.00
57900;BME280;60605;53.716;19.940;2023-11-19T09:33:45;100230.98;;;1.16;100.00
57900;BME280;60605;53.716;19.940;2023-11-19T09:38:49;100225.38;;;1.21;100.00
57900;BME280;60605;53.716;19.940;2023-11-19T09:43:52;100215.95;;;1.25;100.00
57900;BME280;60605;53.716;19.940;2023-11-19T09:48:56;100206.70;;;1.30;100.00
57900;BME280;60605;53.716;19.940;2023-11-19T09:54:02;100196.76;;;1.34;100.00
57900;BME280;60605;53.716;19.940;2023-11-19T09:59:05;100193.52;;;1.43;100.00
57900;BME280;60605;53.716;19.940;2023-11-19T10:04:08;100191.09;;;1.54;100.00
57900;BME280;60605;53.716;19.940;2023-11-19T10:09:13;100175.27;;;1.64;100.00
57900;BME280;60605;53.716;19.940;2023-11-19T10:14:23;100164.37;;;1.72;100.00
57900;BME280;60605;53.716;19.940;2023-11-19T10:19:27;100151.99;;;1.75;100.00
57900;BME280;60605;53.716;19.940;2023-11-19T10:24:33;100137.27;;;1.74;100.00
57900;BME280;60605;53.716;19.940;2023-11-19T10:29:47;100118.91;;;1.70;100.00
57900;BME280;60605;53.716;19.940;2023-11-19T10:34:51;100106.48;;;1.67;100.00
57900;BME280;60605;53.716;19.940;2023-11-19T10:39:55;100092.02;;;1.72;100.00
57900;BME280;60605;53.716;19.940;2023-11-19T10:44:59;100080.71;;;1.78;100.00
57900;BME280;60605;53.716;19.940;2023-11-19T10:50:03;100072.13;;;1.83;100.00
57900;BME280;60605;53.716;19.940;2023-11-19T10:55:11;100069.38;;;1.84;100.00
57900;BME280;60605;53.716;19.940;2023-11-19T11:00:19;100060.33;;;1.85;100.00
57900;BME280;60605;53.716;19.940;2023-11-19T11:05:26;100049.10;;;1.82;100.00
57900;BME280;60605;53.716;19.940;2023-11-19T11:10:32;100051.80;;;1.76;100.00
57900;BME280;60605;53.716;19.940;2023-11-19T11:15:39;100044.98;;;1.75;100.00
57900;BME280;60605;53.716;19.940;2023-11-19T11:20:46;100032.29;;;1.75;100.00
57900;BME280;60605;53.716;19.940;2023-11-19T11:47:25;99978.73;;;1.63;100.00
57900;BME280;60605;53.716;19.940;2023-11-19T11:52:28;99974.51;;;1.61;100.00
57900;BME280;60605;53.716;19.940;2023-11-19T11:57:36;99965.70;;;1.61;100.00
57900;BME280;60605;53.716;19.940;2023-11-19T12:02:40;99963.64;;;1.60;100.00
57900;BME280;60605;53.716;19.940;2023-11-19T12:07:54;99956.40;;;1.58;100.00
57900;BME280;60605;53.716;19.940;2023-11-19T12:13:00;99956.16;;;1.59;100.00
57900;BME280;60605;53.716;19.940;2023-11-19T12:18:03;99950.41;;;1.58;100.00
57900;BME280;60605;53.716;19.940;2023-11-19T12:23:08;99938.13;;;1.57;100.00
57900;BME280;60605;53.716;19.940;2023-11-19T12:28:13;99932.08;;;1.56;100.00
57900;BME280;60605;53.716;19.940;2023-11-19T12:33:18;99926.56;;;1.54;100.00
57900;BME280;60605;53.716;19.940;2023-11-19T12:38:25;99918.71;;;1.53;100.00
57900;BME280;60605;53.716;19.940;2023-11-19T12:43:30;99909.73;;;1.53;100.00
57900;BME280;60605;53.716;19.940;2023-11-19T12:48:33;99901.50;;;1.50;100.00
57900;BME280;60605;53.716;19.940;2023-11-19T12:53:47;99895.95;;;1.49;100.00
57900;BME280;60605;53.716;19.940;2023-11-19T12:58:51;99883.55;;;1.48;100.00
57900;BME280;60605;53.716;19.940;2023-11-19T13:03:55;99865.13;;;1.47;100.00
57900;BME280;60605;53.716;19.940;2023-11-19T13:08:58;99854.38;;;1.47;100.00
57900;BME280;60605;53.716;19.940;2023-11-19T13:14:04;99840.44;;;1.45;100.00
57900;BME280;60605;53.716;19.940;2023-11-19T13:19:15;99832.10;;;1.44;100.00
57900;BME280;60605;53.716;19.940;2023-11-19T13:24:23;99814.37;;;1.43;100.00
57900;BME280;60605;53.716;19.940;2023-11-19T13:29:26;99797.80;;;1.41;100.00
57900;BME280;60605;53.716;19.940;2023-11-19T13:34:34;99792.34;;;1.39;100.00
57900;BME280;60605;53.716;19.940;2023-11-19T13:39:43;99782.92;;;1.38;100.00
57900;BME280;60605;53.716;19.940;2023-11-19T13:44:48;99777.28;;;1.38;100.00
57900;BME280;60605;53.716;19.940;2023-11-19T13:49:51;99771.52;;;1.35;100.00
57900;BME280;60605;53.716;19.940;2023-11-19T13:54:55;99764.56;;;1.31;100.00
57900;BME280;60605;53.716;19.940;2023-11-19T13:59:59;99755.39;;;1.27;100.00
57900;BME280;60605;53.716;19.940;2023-11-19T14:05:03;99755.63;;;1.24;100.00
57900;BME280;60605;53.716;19.940;2023-11-19T14:10:10;99751.65;;;1.17;100.00
57900;BME280;60605;53.716;19.940;2023-11-19T14:15:14;99738.70;;;1.11;100.00
57900;BME280;60605;53.716;19.940;2023-11-19T14:20:21;99738.79;;;1.05;100.00
57900;BME280;60605;53.716;19.940;2023-11-19T14:25:25;99735.52;;;1.02;100.00
57900;BME280;60605;53.716;19.940;2023-11-19T14:30:29;99735.04;;;0.99;100.00
57900;BME280;60605;53.716;19.940;2023-11-19T14:35:32;99733.33;;;0.95;100.00
57900;BME280;60605;53.716;19.940;2023-11-19T14:40:36;99727.05;;;0.92;100.00
57900;BME280;60605;53.716;19.940;2023-11-19T14:45:43;99724.10;;;0.89;100.00
57900;BME280;60605;53.716;19.940;2023-11-19T14:50:52;99719.00;;;0.87;100.00
57900;BME280;60605;53.716;19.940;2023-11-19T14:55:56;99716.20;;;0.84;100.00
57900;BME280;60605;53.716;19.940;2023-11-19T15:01:00;99715.99;;;0.82;100.00
57900;BME280;60605;53.716;19.940;2023-11-19T15:06:07;99713.98;;;0.81;100.00
57900;BME280;60605;53.716;19.940;2023-11-19T15:11:11;99719.19;;;0.79;100.00
57900;BME280;60605;53.716;19.940;2023-11-19T15:16:15;99712.42;;;0.78;100.00
57900;BME280;60605;53.716;19.940;2023-11-19T15:21:26;99708.62;;;0.77;100.00
57900;BME280;60605;53.716;19.940;2023-11-19T15:26:31;99703.78;;;0.76;100.00
57900;BME280;60605;53.716;19.940;2023-11-19T15:31:35;99703.06;;;0.76;100.00
57900;BME280;60605;53.716;19.940;2023-11-19T15:36:39;99707.41;;;0.76;100.00
57900;BME280;60605;53.716;19.940;2023-11-19T15:41:42;99704.16;;;0.78;100.00
57900;BME280;60605;53.716;19.940;2023-11-19T15:46:45;99699.47;;;0.77;100.00
57900;BME280;60605;53.716;19.940;2023-11-19T15:51:49;99698.80;;;0.76;100.00
57900;BME280;60605;53.716;19.940;2023-11-19T15:56:53;99696.73;;;0.76;100.00
57900;BME280;60605;53.716;19.940;2023-11-19T16:01:57;99688.46;;;0.76;100.00
57900;BME280;60605;53.716;19.940;2023-11-19T16:07:01;99677.50;;;0.77;100.00
57900;BME280;60605;53.716;19.940;2023-11-19T16:12:04;99675.86;;;0.78;100.00
57900;BME280;60605;53.716;19.940;2023-11-19T16:17:08;99668.48;;;0.78;100.00
57900;BME280;60605;53.716;19.940;2023-11-19T16:22:12;99661.06;;;0.78;100.00
57900;BME280;60605;53.716;19.940;2023-11-19T16:27:16;99663.94;;;0.80;100.00
57900;BME280;60605;53.716;19.940;2023-11-19T16:32:23;99660.75;;;0.83;100.00
57900;BME280;60605;53.716;19.940;2023-11-19T16:37:27;99661.58;;;0.86;100.00
57900;BME280;60605;53.716;19.940;2023-11-19T16:42:31;99662.23;;;0.89;100.00
57900;BME280;60605;53.716;19.940;2023-11-19T16:47:34;99657.77;;;0.93;100.00
57900;BME280;60605;53.716;19.940;2023-11-19T16:52:38;99649.84;;;0.96;100.00
57900;BME280;60605;53.716;19.940;2023-11-19T16:57:41;99647.55;;;0.98;100.00
57900;BME280;60605;53.716;19.940;2023-11-19T17:02:47;99644.77;;;1.00;100.00
57900;BME280;60605;53.716;19.940;2023-11-19T17:07:54;99634.16;;;1.01;100.00
57900;BME280;60605;53.716;19.940;2023-11-19T17:12:58;99628.38;;;1.01;100.00
57900;BME280;60605;53.716;19.940;2023-11-19T17:18:01;99621.17;;;1.00;100.00
57900;BME280;60605;53.716;19.940;2023-11-19T17:23:04;99610.59;;;0.98;100.00
57900;BME280;60605;53.716;19.940;2023-11-19T17:28:08;99603.64;;;0.97;100.00
57900;BME280;60605;53.716;19.940;2023-11-19T17:33:12;99598.66;;;0.96;100.00
57900;BME280;60605;53.716;19.940;2023-11-19T17:38:16;99598.73;;;0.95;100.00
57900;BME280;60605;53.716;19.940;2023-11-19T17:43:26;99591.69;;;0.95;100.00
57900;BME280;60605;53.716;19.940;2023-11-19T17:48:29;99592.89;;;0.96;100.00
57900;BME280;60605;53.716;19.940;2023-11-19T17:53:34;99589.42;;;0.97;100.00
57900;BME280;60605;53.716;19.940;2023-11-19T17:58:41;99591.46;;;0.98;100.00
57900;BME280;60605;53.716;19.940;2023-11-19T18:03:44;99589.80;;;0.99;100.00
57900;BME280;60605;53.716;19.940;2023-11-19T18:08:48;99582.13;;;1.01;100.00
57900;BME280;60605;53.716;19.940;2023-11-19T18:13:52;99584.48;;;1.02;100.00
57900;BME280;60605;53.716;19.940;2023-11-19T18:18:57;99576.83;;;1.04;100.00
57900;BME280;60605;53.716;19.940;2023-11-19T18:24:01;99572.65;;;1.06;100.00
57900;BME280;60605;53.716;19.940;2023-11-19T18:29:04;99568.86;;;1.07;100.00
57900;BME280;60605;53.716;19.940;2023-11-19T18:34:08;99562.76;;;1.08;100.00
57900;BME280;60605;53.716;19.940;2023-11-19T18:39:11;99562.56;;;1.11;100.00
57900;BME280;60605;53.716;19.940;2023-11-19T18:44:15;99562.80;;;1.12;100.00
57900;BME280;60605;53.716;19.940;2023-11-19T18:49:19;99563.19;;;1.14;100.00
57900;BME280;60605;53.716;19.940;2023-11-19T18:54:22;99564.97;;;1.16;100.00
57900;BME280;60605;53.716;19.940;2023-11-19T18:59:26;99557.49;;;1.18;100.00
57900;BME280;60605;53.716;19.940;2023-11-19T19:04:29;99554.75;;;1.19;100.00
57900;BME280;60605;53.716;19.940;2023-11-19T19:09:34;99553.52;;;1.22;100.00
57900;BME280;60605;53.716;19.940;2023-11-19T19:14:37;99543.42;;;1.23;100.00
57900;BME280;60605;53.716;19.940;2023-11-19T19:19:41;99554.39;;;1.24;100.00
57900;BME280;60605;53.716;19.940;2023-11-19T19:24:44;99557.29;;;1.25;100.00
57900;BME280;60605;53.716;19.940;2023-11-19T19:29:48;99553.50;;;1.27;100.00
57900;BME280;60605;53.716;19.940;2023-11-19T19:34:52;99542.86;;;1.28;100.00
57900;BME280;60605;53.716;19.940;2023-11-19T19:39:56;99540.52;;;1.29;100.00
57900;BME280;60605;53.716;19.940;2023-11-19T19:44:59;99536.46;;;1.29;100.00
57900;BME280;60605;53.716;19.940;2023-11-19T19:50:04;99533.30;;;1.29;100.00
57900;BME280;60605;53.716;19.940;2023-11-19T19:55:11;99527.45;;;1.27;100.00
57900;BME280;60605;53.716;19.940;2023-11-19T20:00:16;99522.58;;;1.24;100.00
57900;BME280;60605;53.716;19.940;2023-11-19T20:05:22;99524.00;;;1.21;100.00
57900;BME280;60605;53.716;19.940;2023-11-19T20:10:27;99525.21;;;1.19;100.00
57900;BME280;60605;53.716;19.940;2023-11-19T20:15:31;99529.44;;;1.17;100.00
57900;BME280;60605;53.716;19.940;2023-11-19T20:20:36;99526.66;;;1.14;100.00
57900;BME280;60605;53.716;19.940;2023-11-19T20:25:41;99523.50;;;1.11;100.00
57900;BME280;60605;53.716;19.940;2023-11-19T20:30:47;99521.59;;;1.09;100.00
57900;BME280;60605;53.716;19.940;2023-11-19T20:35:51;99515.02;;;1.07;100.00
57900;BME280;60605;53.716;19.940;2023-11-19T20:40:55;99506.12;;;1.06;100.00
57900;BME280;60605;53.716;19.940;2023-11-19T20:45:59;99503.51;;;1.06;100.00
57900;BME280;60605;53.716;19.940;2023-11-19T20:51:03;99503.49;;;1.06;100.00
57900;BME280;60605;53.716;19.940;2023-11-19T20:56:06;99493.70;;;1.05;100.00
57900;BME280;60605;53.716;19.940;2023-11-19T21:01:10;99493.33;;;1.06;100.00
57900;BME280;60605;53.716;19.940;2023-11-19T21:06:14;99492.09;;;1.06;100.00
57900;BME280;60605;53.716;19.940;2023-11-19T21:11:20;99493.30;;;1.06;100.00
57900;BME280;60605;53.716;19.940;2023-11-19T21:16:23;99489.41;;;1.07;100.00
57900;BME280;60605;53.716;19.940;2023-11-19T21:21:26;99487.08;;;1.07;100.00
57900;BME280;60605;53.716;19.940;2023-11-19T21:26:30;99484.79;;;1.07;100.00
57900;BME280;60605;53.716;19.940;2023-11-19T21:31:34;99485.50;;;1.07;100.00
57900;BME280;60605;53.716;19.940;2023-11-19T21:36:57;99483.54;;;1.07;100.00
57900;BME280;60605;53.716;19.940;2023-11-19T21:42:00;99482.64;;;1.08;100.00
57900;BME280;60605;53.716;19.940;2023-11-19T21:47:04;99479.95;;;1.08;100.00
57900;BME280;60605;53.716;19.940;2023-11-19T21:52:08;99475.48;;;1.09;100.00
57900;BME280;60605;53.716;19.940;2023-11-19T21:57:12;99474.69;;;1.10;100.00
57900;BME280;60605;53.716;19.940;2023-11-19T22:02:17;99475.63;;;1.12;100.00
57900;BME280;60605;53.716;19.940;2023-11-19T22:07:20;99473.95;;;1.13;100.00
57900;BME280;60605;53.716;19.940;2023-11-19T22:12:24;99466.86;;;1.14;100.00
57900;BME280;60605;53.716;19.940;2023-11-19T22:17:27;99464.81;;;1.15;100.00
57900;BME280;60605;53.716;19.940;2023-11-19T22:22:31;99461.55;;;1.17;100.00
57900;BME280;60605;53.716;19.940;2023-11-19T22:27:34;99459.89;;;1.18;100.00
57900;BME280;60605;53.716;19.940;2023-11-19T22:32:38;99461.43;;;1.19;100.00
57900;BME280;60605;53.716;19.940;2023-11-19T22:37:41;99461.89;;;1.19;100.00
57900;BME280;60605;53.716;19.940;2023-11-19T22:42:44;99465.47;;;1.21;100.00
57900;BME280;60605;53.716;19.940;2023-11-19T22:47:48;99462.42;;;1.22;100.00
57900;BME280;60605;53.716;19.940;2023-11-19T22:52:53;99458.84;;;1.22;100.00
57900;BME280;60605;53.716;19.940;2023-11-19T22:57:56;99451.06;;;1.23;100.00
57900;BME280;60605;53.716;19.940;2023-11-19T23:03:03;99455.17;;;1.24;100.00
57900;BME280;60605;53.716;19.940;2023-11-19T23:08:07;99458.56;;;1.26;100.00
57900;BME280;60605;53.716;19.940;2023-11-19T23:13:14;99453.83;;;1.28;100.00
57900;BME280;60605;53.716;19.940;2023-11-19T23:18:18;99455.08;;;1.30;100.00
57900;BME280;60605;53.716;19.940;2023-11-19T23:23:21;99458.09;;;1.32;100.00
57900;BME280;60605;53.716;19.940;2023-11-19T23:28:25;99451.85;;;1.34;100.00
57900;BME280;60605;53.716;19.940;2023-11-19T23:33:28;99441.52;;;1.35;100.00
57900;BME280;60605;53.716;19.940;2023-11-19T23:38:32;99438.06;;;1.37;100.00
57900;BME280;60605;53.716;19.940;2023-11-19T23:43:35;99438.64;;;1.38;100.00
57900;BME280;60605;53.716;19.940;2023-11-19T23:48:38;99437.29;;;1.40;100.00
57900;BME280;60605;53.716;19.940;2023-11-19T23:54:01;99429.99;;;1.41;100.00
57900;BME280;60605;53.716;19.940;2023-11-19T23:59:05;99421.17;;;1.41;100.00
